Time;durP1;ratioP1;P1;durP2;ratioP2;P2;SDS_P1;SDS_P2;PMS_P1;PMS_P2;Temp;Humidity;BMP_temperature;BMP_pressure;BME280_temperature;BME280_humidity;BME280_pressure;Samples;Min_cycle;Max_cycle;Signal;HPM_P1;HPM_P2
2023/04/21 00:01:02;;;;;;;26.53;13.07;;;;;;;5.74;100.00;102217.31;7396023;19;20437;-35
2023/04/21 00:03:32;;;;;;;25.17;13.50;;;;;;;5.78;100.00;102219.38;7391189;19;20550;-35
2023/04/21 00:06:02;;;;;;;30.63;13.50;;;;;;;5.76;100.00;102214.88;7396145;19;20413;-35
2023/04/21 00:08:31;;;;;;;32.13;15.60;;;;;;;5.75;100.00;102219.09;7392276;19;20464;-35
2023/04/21 00:11:01;;;;;;;27.83;11.77;;;;;;;5.74;100.00;102213.88;7396261;19;20391;-35
2023/04/21 00:13:31;;;;;;;31.90;17.80;;;;;;;5.78;100.00;102214.25;7391863;19;20431;-36
2023/04/21 00:16:03;;;;;;;29.97;13.37;;;;;;;5.81;100.00;102209.38;7395755;19;20439;-35
2023/04/21 00:18:32;;;;;;;35.57;15.77;;;;;;;5.83;100.00;102211.19;7391730;19;20439;-35
2023/04/21 00:21:02;;;;;;;30.17;15.03;;;;;;;5.80;100.00;102201.56;7395680;19;20439;-35
2023/04/21 00:23:31;;;;;;;30.93;12.97;;;;;;;5.73;100.00;102210.38;7391469;19;20462;-35
2023/04/21 00:26:01;;;;;;;27.43;14.00;;;;;;;5.75;100.00;102207.97;7395627;19;20412;-35
2023/04/21 00:28:31;;;;;;;26.13;12.80;;;;;;;5.73;100.00;102212.94;7392255;19;20443;-35
2023/04/21 00:31:03;;;;;;;29.73;12.47;;;;;;;5.63;100.00;102213.84;7395672;19;20419;-37
2023/04/21 00:33:33;;;;;;;25.70;12.93;;;;;;;5.63;100.00;102207.81;7389328;19;20443;-35
2023/04/21 00:36:02;;;;;;;29.60;14.37;;;;;;;5.62;100.00;102203.44;7395218;19;20407;-35
2023/04/21 00:38:32;;;;;;;29.20;15.87;;;;;;;5.61;100.00;102205.13;7390826;19;20560;-35
2023/04/21 00:41:01;;;;;;;35.53;15.80;;;;;;;5.68;100.00;102201.41;7394291;19;20411;-35
2023/04/21 00:43:31;;;;;;;26.47;14.10;;;;;;;5.63;100.00;102203.59;7392463;19;20458;-35
2023/04/21 00:46:03;;;;;;;25.17;12.27;;;;;;;5.64;100.00;102199.38;7395115;19;20407;-35
2023/04/21 00:48:33;;;;;;;32.30;13.83;;;;;;;5.70;100.00;102199.00;7391765;19;20439;-35
2023/04/21 00:51:02;;;;;;;41.80;20.60;;;;;;;5.66;100.00;102192.72;7395399;19;20934;-36
2023/04/21 00:53:32;;;;;;;33.47;16.50;;;;;;;5.68;100.00;102196.28;7387878;19;21106;-36
2023/04/21 00:56:01;;;;;;;27.23;11.90;;;;;;;5.70;100.00;102194.78;7390012;19;20388;-36
2023/04/21 00:58:31;;;;;;;32.23;14.77;;;;;;;5.69;100.00;102198.06;7387394;19;20461;-35
2023/04/21 01:01:04;;;;;;;33.47;15.53;;;;;;;5.66;100.00;102202.97;7391778;19;20462;-35
2023/04/21 01:03:33;;;;;;;34.93;17.77;;;;;;;5.66;100.00;102200.41;7387503;19;20455;-35
2023/04/21 01:06:03;;;;;;;21.50;10.93;;;;;;;5.63;100.00;102195.00;7391142;19;20856;-35
2023/04/21 01:08:33;;;;;;;26.97;14.20;;;;;;;5.61;100.00;102194.91;7389402;19;20451;-36
2023/04/21 01:11:11;;;;;;;26.60;13.00;;;;;;;5.54;100.00;102196.03;7391742;19;20387;-35
2023/04/21 01:13:41;;;;;;;30.50;14.60;;;;;;;5.57;100.00;102192.81;7388047;19;20415;-35
2023/04/21 01:16:18;;;;;;;29.30;14.43;;;;;;;5.57;100.00;102191.91;7391267;19;20392;-35
2023/04/21 01:18:47;;;;;;;26.83;14.67;;;;;;;5.56;100.00;102193.59;7388318;19;20445;-35
2023/04/21 01:21:17;;;;;;;41.30;20.47;;;;;;;5.63;100.00;102190.78;7392799;19;20411;-35
2023/04/21 01:23:50;;;;;;;32.67;15.10;;;;;;;5.62;100.00;102180.41;7387056;19;20995;-36
2023/04/21 01:26:20;;;;;;;50.73;22.23;;;;;;;5.61;100.00;102182.09;7393741;19;20447;-35
2023/04/21 01:28:50;;;;;;;30.00;13.20;;;;;;;5.65;100.00;102189.25;7390364;19;20978;-35
2023/04/21 01:31:20;;;;;;;26.43;13.37;;;;;;;5.65;100.00;102191.81;7392543;19;20818;-36
2023/04/21 01:33:49;;;;;;;21.93;13.60;;;;;;;5.68;100.00;102186.97;7386804;19;20757;-36
2023/04/21 01:36:19;;;;;;;26.17;13.53;;;;;;;5.65;100.00;102190.94;7390163;19;20828;-36
2023/04/21 01:38:51;;;;;;;34.20;14.33;;;;;;;5.68;100.00;102186.03;7389652;19;20975;-35
2023/04/21 01:41:20;;;;;;;30.93;12.70;;;;;;;5.64;100.00;102191.69;7391032;19;20407;-36
2023/04/21 01:43:50;;;;;;;25.03;12.73;;;;;;;5.69;100.00;102195.53;7387304;19;20425;-35
2023/04/21 01:46:21;;;;;;;24.87;12.47;;;;;;;5.73;100.00;102189.00;7390043;19;20410;-35
2023/04/21 01:48:50;;;;;;;26.53;11.57;;;;;;;5.61;100.00;102194.91;7388383;19;20432;-35
2023/04/21 01:51:20;;;;;;;23.13;12.70;;;;;;;5.55;100.00;102184.13;7389872;19;20399;-35
2023/04/21 01:53:53;;;;;;;24.53;11.03;;;;;;;5.60;100.00;102197.31;7386849;19;20434;-35
2023/04/21 01:56:22;;;;;;;26.03;12.97;;;;;;;5.58;100.00;102183.50;7389531;19;20412;-37
2023/04/21 01:58:52;;;;;;;23.27;11.47;;;;;;;5.54;100.00;102184.91;7387054;19;20435;-35
2023/04/21 02:01:21;;;;;;;24.70;11.60;;;;;;;5.56;100.00;102190.13;7389467;19;20419;-35
2023/04/21 02:03:51;;;;;;;20.17;10.77;;;;;;;5.58;100.00;102183.50;7386240;19;20426;-35
2023/04/21 02:06:20;;;;;;;22.60;11.10;;;;;;;5.45;100.00;102195.25;7389531;19;20415;-36
2023/04/21 02:08:53;;;;;;;26.23;12.13;;;;;;;5.45;100.00;102177.31;7384852;19;20762;-35
2023/04/21 02:11:23;;;;;;;38.53;17.73;;;;;;;5.48;100.00;102176.69;7389758;19;20395;-36
2023/04/21 02:13:53;;;;;;;21.23;10.00;;;;;;;5.45;100.00;102177.31;7387758;19;20969;-35
2023/04/21 02:16:25;;;;;;;19.50;11.00;;;;;;;5.48;100.00;102171.56;7389476;19;20402;-35
2023/04/21 02:18:55;;;;;;;24.20;12.40;;;;;;;5.43;100.00;102175.41;7386276;19;20419;-37
2023/04/21 02:21:25;;;;;;;23.50;10.43;;;;;;;5.42;100.00;102171.06;7390904;19;20451;-35
2023/04/21 02:23:57;;;;;;;22.10;11.97;;;;;;;5.39;100.00;102170.00;7386722;19;20434;-35
2023/04/21 02:26:27;;;;;;;26.67;11.77;;;;;;;5.45;100.00;102171.28;7389166;19;20420;-35
2023/04/21 02:28:56;;;;;;;23.93;11.80;;;;;;;5.52;100.00;102163.38;7387715;19;20783;-35
2023/04/21 02:31:26;;;;;;;20.67;11.03;;;;;;;5.46;100.00;102165.41;7389114;19;20410;-36
2023/04/21 02:33:56;;;;;;;31.10;14.83;;;;;;;5.44;100.00;102165.28;7385525;19;20419;-36
2023/04/21 02:36:25;;;;;;;26.87;11.80;;;;;;;5.39;100.00;102166.56;7388567;19;20436;-35
2023/04/21 02:38:57;;;;;;;31.80;14.93;;;;;;;5.47;100.00;102159.50;7385730;19;20415;-35
2023/04/21 02:41:27;;;;;;;27.47;11.80;;;;;;;5.50;100.00;102164.91;7388853;19;20421;-35
2023/04/21 02:43:56;;;;;;;26.53;14.83;;;;;;;5.40;100.00;102165.78;7385696;19;20415;-35
2023/04/21 02:46:26;;;;;;;28.03;13.20;;;;;;;5.41;100.00;102165.03;7388159;19;20419;-36
2023/04/21 02:48:55;;;;;;;26.60;11.50;;;;;;;5.45;100.00;102161.06;7386272;19;20436;-35
2023/04/21 02:51:25;;;;;;;24.77;12.93;;;;;;;5.46;100.00;102158.63;7388220;19;20422;-35
2023/04/21 02:53:58;;;;;;;21.97;10.97;;;;;;;5.45;100.00;102161.06;7385201;19;20954;-35
2023/04/21 02:56:27;;;;;;;22.33;10.20;;;;;;;5.43;100.00;102160.03;7387468;19;20970;-36
2023/04/21 02:58:57;;;;;;;21.93;12.10;;;;;;;5.44;100.00;102162.72;7385476;19;20426;-36
2023/04/21 03:01:26;;;;;;;27.57;12.13;;;;;;;5.42;100.00;102159.13;7389687;19;20416;-35
2023/04/21 03:03:56;;;;;;;22.80;11.17;;;;;;;5.47;100.00;102169.75;7384367;19;20434;-36
2023/04/21 03:06:27;;;;;;;25.20;12.00;;;;;;;5.48;100.00;102154.53;7389670;19;21086;-35
2023/04/21 03:08:59;;;;;;;23.80;11.40;;;;;;;5.52;100.00;102158.25;7385288;19;20432;-35
2023/04/21 03:11:28;;;;;;;19.93;10.53;;;;;;;5.47;100.00;102157.88;7387365;19;20750;-35
2023/04/21 03:13:58;;;;;;;23.10;10.47;;;;;;;5.49;100.00;102156.31;7384803;19;20407;-35
2023/04/21 03:16:28;;;;;;;21.40;11.43;;;;;;;5.46;100.00;102156.06;7387465;19;20446;-35
2023/04/21 03:18:57;;;;;;;27.03;12.20;;;;;;;5.47;100.00;102151.84;7386301;19;20399;-35
2023/04/21 03:21:27;;;;;;;19.87;9.93;;;;;;;5.38;100.00;102160.53;7390902;19;20894;-37
2023/04/21 03:23:59;;;;;;;21.47;10.60;;;;;;;5.40;100.00;102156.44;7392602;19;20467;-35
2023/04/21 03:26:29;;;;;;;36.47;13.30;;;;;;;5.41;100.00;102159.91;7394019;19;20781;-36
2023/04/21 03:28:58;;;;;;;28.93;11.77;;;;;;;5.48;100.00;102151.97;7392254;19;20811;-35
2023/04/21 03:31:28;;;;;;;28.47;10.30;;;;;;;5.46;100.00;102148.41;7393926;19;20399;-35
2023/04/21 03:33:57;;;;;;;24.60;11.93;;;;;;;5.46;100.00;102156.06;7389441;19;21068;-35
2023/04/21 03:36:27;;;;;;;25.97;12.47;;;;;;;5.49;100.00;102153.75;7393848;19;20411;-35
2023/04/21 03:39:00;;;;;;;23.60;10.30;;;;;;;5.43;100.00;102149.81;7392552;19;20551;-35
2023/04/21 03:41:47;;;;;;;23.57;13.80;;;;;;;5.49;100.00;102150.31;7394272;19;20399;-35
2023/04/21 03:44:17;;;;;;;26.47;13.90;;;;;;;5.51;100.00;102152.25;7391557;19;20415;-36
2023/04/21 03:46:46;;;;;;;22.03;10.43;;;;;;;5.42;100.00;102151.44;7393671;19;20420;-36
2023/04/21 03:49:16;;;;;;;21.80;10.70;;;;;;;5.44;100.00;102147.34;7391525;19;20423;-35
2023/04/21 03:51:45;;;;;;;27.23;12.97;;;;;;;5.45;100.00;102155.94;7393041;19;20415;-36
2023/04/21 03:54:18;;;;;;;25.90;12.27;;;;;;;5.46;100.00;102145.84;7390257;19;20427;-35
2023/04/21 03:56:47;;;;;;;23.07;11.33;;;;;;;5.49;100.00;102150.31;7393385;19;20434;-35
2023/04/21 03:59:17;;;;;;;26.77;12.73;;;;;;;5.48;100.00;102151.09;7391370;19;20423;-35
2023/04/21 04:01:47;;;;;;;26.20;10.50;;;;;;;5.51;100.00;102151.34;7393040;19;20421;-35
2023/04/21 04:04:16;;;;;;;24.33;12.83;;;;;;;5.54;100.00;102151.63;7390140;19;20423;-35
2023/04/21 04:06:46;;;;;;;34.03;16.93;;;;;;;5.54;100.00;102149.94;7394333;19;20811;-35
2023/04/21 04:09:18;;;;;;;38.87;17.40;;;;;;;5.58;100.00;102157.88;7393962;19;20471;-36
2023/04/21 04:11:48;;;;;;;28.70;14.20;;;;;;;5.56;100.00;102155.19;7393052;19;20383;-35
2023/04/21 04:14:18;;;;;;;34.97;17.13;;;;;;;5.51;100.00;102151.34;7390182;19;20419;-36
2023/04/21 04:16:47;;;;;;;28.47;12.40;;;;;;;5.61;100.00;102148.81;7392567;19;20436;-35
2023/04/21 04:19:17;;;;;;;28.07;11.63;;;;;;;5.56;100.00;102141.47;7390344;19;21017;-35
2023/04/21 04:21:47;;;;;;;24.80;10.27;;;;;;;5.52;100.00;102143.78;7392154;19;20927;-35
2023/04/21 04:24:20;;;;;;;25.30;11.17;;;;;;;5.50;100.00;102145.31;7389470;19;20459;-34
2023/04/21 04:26:50;;;;;;;24.70;12.13;;;;;;;5.53;100.00;102140.47;7392514;19;20427;-35
2023/04/21 04:29:20;;;;;;;24.33;11.43;;;;;;;5.50;100.00;102142.75;7390536;19;21068;-35
2023/04/21 04:31:51;;;;;;;22.67;11.00;;;;;;;5.52;100.00;102138.69;7389488;19;20415;-34
2023/04/21 04:34:22;;;;;;;21.80;11.63;;;;;;;5.67;100.00;102139.06;7390000;19;20415;-34
2023/04/21 04:36:51;;;;;;;23.40;9.90;;;;;;;5.62;100.00;102136.88;7393312;19;20430;-36
2023/04/21 04:39:24;;;;;;;21.43;10.43;;;;;;;5.54;100.00;102137.13;7389826;19;20439;-35
2023/04/21 04:41:54;;;;;;;19.53;11.10;;;;;;;5.61;100.00;102136.00;7391680;19;20400;-34
2023/04/21 04:44:24;;;;;;;21.27;10.57;;;;;;;5.59;100.00;102136.63;7389220;19;20783;-35
2023/04/21 04:46:54;;;;;;;18.00;9.37;;;;;;;5.58;100.00;102130.59;7391527;19;20415;-34
2023/04/21 04:49:24;;;;;;;19.30;10.10;;;;;;;5.61;100.00;102129.97;7389386;19;20419;-36
2023/04/21 04:51:54;;;;;;;22.10;10.93;;;;;;;5.57;100.00;102135.59;7391922;19;20388;-35
2023/04/21 04:54:27;;;;;;;21.20;11.50;;;;;;;5.51;100.00;102130.84;7388756;19;21071;-34
2023/04/21 04:56:57;;;;;;;87.20;42.87;;;;;;;6.13;100.00;102130.88;7391312;19;20962;-35
2023/04/21 04:59:27;;;;;;;39.97;19.50;;;;;;;6.76;100.00;102131.56;7391583;19;20800;-35
2023/04/21 05:01:58;;;;;;;29.97;15.10;;;;;;;6.69;100.00;102131.84;7391057;19;20967;-34
2023/04/21 05:04:28;;;;;;;44.00;19.77;;;;;;;6.86;100.00;102134.09;7388121;19;20447;-35
2023/04/21 05:06:58;;;;;;;44.60;24.53;;;;;;;7.39;100.00;102127.88;7391301;19;20507;-34
2023/04/21 05:09:30;;;;;;;30.33;16.40;;;;;;;7.49;100.00;102105.47;7388970;19;20411;-35
2023/04/21 05:11:59;;;;;;;25.73;12.77;;;;;;;7.54;100.00;102086.19;7393174;19;20776;-35
2023/04/21 05:14:29;;;;;;;17.80;10.10;;;;;;;7.39;100.00;102053.41;7388263;19;20423;-35
2023/04/21 05:16:59;;;;;;;21.50;12.20;;;;;;;7.51;100.00;102016.59;7392189;19;20446;-35
2023/04/21 05:19:28;;;;;;;19.70;10.50;;;;;;;7.59;100.00;101992.34;7388267;19;20419;-34
2023/04/21 05:22:00;;;;;;;26.33;11.90;;;;;;;7.58;100.00;101959.75;7391204;19;20392;-36
2023/04/21 05:24:32;;;;;;;22.47;10.37;;;;;;;7.63;100.00;101932.72;7388712;19;20444;-35
2023/04/21 05:27:02;;;;;;;20.10;10.10;;;;;;;7.73;100.00;101877.78;7391189;19;20439;-35
2023/04/21 05:29:33;;;;;;;17.47;9.20;;;;;;;7.70;100.00;101849.31;7388195;19;20419;-35
2023/04/21 05:32:02;;;;;;;21.20;9.03;;;;;;;7.69;100.00;101827.84;7391022;19;20388;-35
2023/04/21 05:34:32;;;;;;;16.83;8.90;;;;;;;7.81;100.00;101808.94;7389192;19;20458;-42
2023/04/21 05:37:01;;;;;;;17.33;8.83;;;;;;;7.62;100.00;101788.78;7390150;19;20436;-35
2023/04/21 05:39:33;;;;;;;19.80;10.43;;;;;;;7.52;100.00;101784.66;7388117;19;20412;-37
2023/04/21 05:42:03;;;;;;;19.13;8.63;;;;;;;7.96;100.00;101779.16;7390499;19;20388;-35
2023/04/21 05:44:33;;;;;;;17.53;9.60;;;;;;;7.91;100.00;101744.56;7390347;19;20451;-35
2023/04/21 05:47:03;;;;;;;17.60;8.40;;;;;;;7.78;100.00;101732.53;7389980;19;20795;-43
2023/04/21 05:49:32;;;;;;;16.03;7.87;;;;;;;7.97;100.00;101719.28;7386320;19;20427;-35
2023/04/21 05:52:02;;;;;;;19.00;10.00;;;;;;;8.33;100.00;101702.75;7389873;19;20415;-35
2023/04/21 05:54:34;;;;;;;14.70;9.23;;;;;;;8.40;100.00;101673.19;7386567;19;20439;-35
2023/04/21 05:57:07;;;;;;;16.30;8.50;;;;;;;8.36;100.00;101660.13;7390123;19;20766;-35
2023/04/21 05:59:36;;;;;;;14.80;9.27;;;;;;;8.11;100.00;101649.91;7391757;19;20455;-35
2023/04/21 06:02:06;;;;;;;19.83;8.40;;;;;;;8.20;100.00;101650.50;7389998;19;20399;-34
2023/04/21 06:04:36;;;;;;;15.60;9.03;;;;;;;8.23;100.00;101637.88;7386273;19;20515;-35
2023/04/21 06:07:09;;;;;;;17.17;8.67;;;;;;;7.97;100.00;101646.44;7389418;19;20475;-35
2023/04/21 06:09:42;;;;;;;16.77;8.30;;;;;;;7.89;100.00;101656.19;7387413;19;20419;-35
2023/04/21 06:12:11;;;;;;;18.37;8.53;;;;;;;7.83;100.00;101656.69;7389973;19;20392;-35
2023/04/21 06:14:41;;;;;;;23.03;14.30;;;;;;;7.92;100.00;101664.13;7386894;19;20427;-35
2023/04/21 06:17:10;;;;;;;19.90;8.80;;;;;;;7.95;100.00;101679.72;7389966;19;20975;-35
2023/04/21 06:19:40;;;;;;;17.83;8.80;;;;;;;7.93;100.00;101655.63;7387563;19;20415;-35
2023/04/21 06:22:10;;;;;;;32.03;15.70;;;;;;;8.40;100.00;101662.91;7389012;19;20388;-35
2023/04/21 06:24:42;;;;;;;36.13;21.20;;;;;;;8.72;100.00;101631.53;7386623;19;20423;-35
2023/04/21 06:27:13;;;;;;;22.87;10.93;;;;;;;8.62;100.00;101593.19;7389129;19;20423;-35
2023/04/21 06:29:44;;;;;;;24.70;15.00;;;;;;;8.46;100.00;101581.88;7386438;19;20428;-35
2023/04/21 06:32:14;;;;;;;25.47;14.87;;;;;;;8.51;100.00;101571.88;7390705;19;20392;-35
2023/04/21 06:34:43;;;;;;;22.13;11.57;;;;;;;8.58;100.00;101568.06;7385595;19;20422;-35
2023/04/21 06:37:13;;;;;;;35.70;16.63;;;;;;;8.66;100.00;101548.84;7388023;19;20428;-35
2023/04/21 06:39:45;;;;;;;19.07;10.57;;;;;;;8.71;100.00;101536.28;7386981;19;20778;-35
2023/04/21 06:42:14;;;;;;;15.30;8.87;;;;;;;8.91;100.00;101534.91;7388751;19;20420;-35
2023/04/21 06:44:44;;;;;;;15.37;10.00;;;;;;;8.91;100.00;101504.03;7385475;19;20419;-35
2023/04/21 06:47:15;;;;;;;17.60;9.20;;;;;;;8.88;100.00;101490.97;7387998;19;20447;-35
2023/04/21 06:49:45;;;;;;;27.03;12.97;;;;;;;9.12;100.00;101494.13;7386707;19;20411;-35
2023/04/21 06:52:14;;;;;;;23.93;10.87;;;;;;;9.19;100.00;101467.06;7387919;19;20404;-35
2023/04/21 06:54:49;;;;;;;17.50;8.83;;;;;;;9.15;100.00;101457.38;7387923;19;20431;-36
2023/04/21 06:57:19;;;;;;;20.47;11.13;;;;;;;9.24;100.00;101433.88;7394904;19;20435;-35
2023/04/21 06:59:48;;;;;;;16.03;9.40;;;;;;;9.35;100.00;101432.81;7401193;19;20997;-35
2023/04/21 07:02:18;;;;;;;14.40;9.67;;;;;;;9.51;100.00;101431.09;7394262;19;20392;-35
2023/04/21 07:04:47;;;;;;;14.57;8.23;;;;;;;9.63;100.00;101425.75;7392696;19;20974;-36
2023/04/21 07:07:17;;;;;;;17.70;10.30;;;;;;;9.62;100.00;101413.66;7394485;19;20483;-35
2023/04/21 07:09:49;;;;;;;17.30;9.70;;;;;;;9.77;100.00;101411.94;7391496;19;20449;-35
2023/04/21 07:12:19;;;;;;;18.67;10.20;;;;;;;9.77;100.00;101396.47;7393233;19;20398;-36
2023/04/21 07:14:49;;;;;;;16.30;8.83;;;;;;;9.87;100.00;101382.41;7395260;19;20415;-35
2023/04/21 07:17:18;;;;;;;13.40;8.23;;;;;;;9.80;100.00;101372.56;7390246;19;20467;-35
2023/04/21 07:19:48;;;;;;;17.70;7.87;;;;;;;9.83;100.00;101376.22;7397029;19;20476;-35
2023/04/21 07:22:20;;;;;;;26.83;13.20;;;;;;;9.84;100.00;101372.81;7397257;19;20407;-35
2023/04/21 07:24:52;;;;;;;13.60;8.60;;;;;;;10.05;100.00;101372.19;7398149;19;20925;-36
2023/04/21 07:27:21;;;;;;;14.10;8.43;;;;;;;10.12;100.00;101358.81;7397721;19;20451;-35
2023/04/21 07:29:51;;;;;;;16.00;8.60;;;;;;;10.21;100.00;101345.53;7398938;19;20455;-35
2023/04/21 07:32:20;;;;;;;17.20;9.53;;;;;;;10.20;100.00;101342.91;7391524;19;20410;-37
2023/04/21 07:34:50;;;;;;;14.50;8.20;;;;;;;10.12;100.00;101337.34;7397321;19;20554;-35
2023/04/21 07:37:20;;;;;;;15.90;9.27;;;;;;;10.29;100.00;101347.66;7397129;19;20483;-35
2023/04/21 07:39:54;;;;;;;21.73;7.93;;;;;;;10.46;100.00;101336.53;7398285;19;20446;-35
2023/04/21 07:42:25;;;;;;;14.27;8.07;;;;;;;10.50;100.00;101342.72;7394598;19;20935;-35
2023/04/21 07:44:56;;;;;;;18.00;8.73;;;;;;;10.51;100.00;101339.38;7395345;19;20410;-35
2023/04/21 07:47:26;;;;;;;19.63;9.20;;;;;;;10.52;100.00;101341.13;7394340;19;20451;-36
2023/04/21 07:49:55;;;;;;;16.93;7.53;;;;;;;10.58;100.00;101335.38;7398737;19;20426;-35
2023/04/21 07:52:25;;;;;;;26.03;9.63;;;;;;;10.73;100.00;101338.78;7393500;19;20412;-35
2023/04/21 07:54:57;;;;;;;18.97;9.33;;;;;;;10.82;100.00;101343.47;7394742;19;20412;-36
2023/04/21 07:57:26;;;;;;;15.30;8.43;;;;;;;10.90;100.00;101343.88;7393549;19;20474;-36
2023/04/21 07:59:56;;;;;;;20.30;7.50;;;;;;;11.03;100.00;101341.09;7395523;19;20407;-35
2023/04/21 08:02:25;;;;;;;12.33;8.03;;;;;;;11.11;100.00;101344.03;7388485;19;20407;-35
2023/04/21 08:04:55;;;;;;;14.30;7.90;;;;;;;11.13;100.00;101352.75;7397465;19;20735;-34
2023/04/21 08:07:25;;;;;;;12.90;7.90;;;;;;;11.20;100.00;101349.69;7392847;19;20456;-35
2023/04/21 08:09:57;;;;;;;13.47;8.23;;;;;;;11.31;100.00;101359.63;7397483;19;20427;-35
2023/04/21 08:12:27;;;;;;;12.80;8.17;;;;;;;11.41;100.00;101360.94;7393447;19;20411;-35
2023/04/21 08:14:56;;;;;;;12.23;7.53;;;;;;;11.46;100.00;101364.66;7394803;19;20407;-35
2023/04/21 08:17:26;;;;;;;11.30;7.30;;;;;;;11.55;100.00;101366.78;7392227;19;20439;-35
2023/04/21 08:19:56;;;;;;;24.77;8.63;;;;;;;11.63;100.00;101369.75;7392743;19;20467;-39
2023/04/21 08:22:28;;;;;;;18.93;8.33;;;;;;;11.75;100.00;101370.31;7394406;19;20420;-40
2023/04/21 08:25:00;;;;;;;16.53;9.27;;;;;;;11.84;100.00;101386.25;7395739;19;20772;-39
2023/04/21 08:27:29;;;;;;;12.57;7.83;;;;;;;11.95;100.00;101384.16;7394165;19;20418;-38
2023/04/21 08:29:59;;;;;;;15.17;7.70;;;;;;;12.01;100.00;101387.03;7396222;19;20830;-39
2023/04/21 08:32:29;;;;;;;14.67;9.10;;;;;;;12.13;100.00;101393.59;7391981;19;20400;-40
2023/04/21 08:34:59;;;;;;;18.17;9.03;;;;;;;12.18;100.00;101398.97;7395760;19;20478;-39
2023/04/21 08:37:28;;;;;;;15.47;7.90;;;;;;;12.29;100.00;101398.66;7396058;19;20420;-39
2023/04/21 08:40:00;;;;;;;20.37;9.87;;;;;;;12.36;100.00;101424.81;7395779;19;20836;-40
2023/04/21 08:42:31;;;;;;;14.30;7.60;;;;;;;12.43;100.00;101421.69;7395155;19;20407;-41
2023/04/21 08:45:00;;;;;;;15.43;8.33;;;;;;;12.51;100.00;101416.88;7397111;19;20970;-41
2023/04/21 08:47:30;;;;;;;18.10;8.53;;;;;;;12.64;100.00;101418.28;7393490;19;20435;-40
2023/04/21 08:50:00;;;;;;;14.30;8.80;;;;;;;12.70;100.00;101428.91;7395044;19;20831;-39
2023/04/21 08:52:30;;;;;;;12.27;7.90;;;;;;;12.83;100.00;101438.97;7395638;19;20420;-41
2023/04/21 08:55:06;;;;;;;17.83;9.30;;;;;;;12.95;100.00;101440.31;7395335;19;20779;-41
2023/04/21 08:57:35;;;;;;;15.23;7.87;;;;;;;13.04;100.00;101437.25;7395434;19;20407;-39
2023/04/21 09:00:07;;;;;;;18.47;8.97;;;;;;;13.01;100.00;101455.22;7394993;19;20447;-40
2023/04/21 09:02:54;;;;;;;19.00;8.67;;;;;;;13.19;100.00;101450.81;7392863;19;20431;-42
2023/04/21 09:05:32;;;;;;;15.07;7.87;;;;;;;13.43;100.00;101454.41;7397701;19;20407;-40
2023/04/21 09:08:14;;;;;;;17.13;9.67;;;;;;;13.58;100.00;101486.16;7391213;19;20419;-41
2023/04/21 09:10:48;;;;;;;15.90;9.07;;;;;;;13.64;100.00;101496.78;7397258;19;20439;-39
2023/04/21 09:13:19;;;;;;;16.87;8.73;;;;;;;13.59;100.00;101502.59;7392750;19;20956;-40
2023/04/21 09:15:51;;;;;;;15.10;8.30;;;;;;;13.67;100.00;101513.28;7397428;19;20408;-38
2023/04/21 09:18:22;;;;;;;16.50;8.50;;;;;;;13.82;100.00;101506.13;7391652;19;20435;-39
2023/04/21 09:20:54;;;;;;;15.00;8.27;;;;;;;13.95;100.00;101511.81;7395640;19;20404;-40
2023/04/21 09:23:24;;;;;;;14.93;8.47;;;;;;;13.98;100.00;101522.28;7391848;19;20420;-40
2023/04/21 09:25:56;;;;;;;15.30;8.67;;;;;;;14.10;100.00;101517.59;7395981;19;20407;-40
2023/04/21 09:28:33;;;;;;;15.43;8.53;;;;;;;14.15;100.00;101534.25;7390994;19;20432;-41
2023/04/21 09:31:02;;;;;;;14.73;7.80;;;;;;;14.28;100.00;101519.16;7397410;19;20748;-40
2023/04/21 09:33:35;;;;;;;17.47;9.07;;;;;;;14.35;100.00;101523.75;7390688;19;20463;-40
2023/04/21 09:36:26;;;;;;;15.23;7.77;;;;;;;14.40;100.00;101532.59;7397356;19;20407;-41
2023/04/21 09:39:00;;;;;;;15.83;9.00;;;;;;;14.54;100.00;101527.03;7387095;19;20444;-43
2023/04/21 09:41:35;;;;;;;16.27;8.27;;;;;;;14.55;100.00;101521.91;7395638;19;21049;-39
2023/04/21 09:44:05;;;;;;;16.80;7.97;;;;;;;14.53;100.00;101527.88;7389858;19;20450;-37
2023/04/21 09:46:36;;;;;;;15.27;8.27;;;;;;;14.63;100.00;101534.28;7394745;19;20415;-37
2023/04/21 09:49:06;;;;;;;13.10;7.37;;;;;;;14.83;100.00;101522.09;7390716;19;20537;-45
2023/04/21 09:51:36;;;;;;;14.90;9.10;;;;;;;14.94;100.00;101525.97;7395117;19;20416;-38
2023/04/21 09:54:30;;;;;;;16.03;8.00;;;;;;;14.89;100.00;101532.69;7390763;19;20447;-40
2023/04/21 09:57:05;;;;;;;12.40;7.47;;;;;;;15.00;100.00;101535.69;7395367;19;20399;-38
2023/04/21 09:59:37;;;;;;;13.30;7.63;;;;;;;15.17;100.00;101510.28;7389501;19;20459;-39
2023/04/21 10:02:08;;;;;;;15.03;7.77;;;;;;;15.20;100.00;101513.00;7396322;19;20395;-38
2023/04/21 10:04:38;;;;;;;23.43;10.57;;;;;;;15.22;100.00;101511.34;7389004;19;20534;-37
2023/04/21 10:07:09;;;;;;;14.80;8.13;;;;;;;15.30;100.00;101522.00;7395109;19;20845;-39
2023/04/21 10:09:47;;;;;;;16.10;8.40;;;;;;;15.48;100.00;101524.34;7394629;19;20439;-39
2023/04/21 10:12:20;;;;;;;17.73;8.50;;;;;;;15.62;100.00;101526.50;7389808;19;21050;-40
2023/04/21 10:14:52;;;;;;;19.60;8.30;;;;;;;15.68;100.00;101518.91;7392294;19;20403;-42
2023/04/21 10:17:25;;;;;;;16.37;7.83;;;;;;;15.86;100.00;101535.97;7388830;19;20787;-38
2023/04/21 10:19:56;;;;;;;13.40;7.80;;;;;;;15.97;100.00;101534.63;7392311;19;20526;-38
2023/04/21 10:22:30;;;;;;;14.23;7.80;;;;;;;16.06;100.00;101527.09;7390168;19;20445;-39
2023/04/21 10:25:00;;;;;;;12.07;7.87;;;;;;;16.05;100.00;101521.84;7392542;19;20411;-38
2023/04/21 10:27:37;;;;;;;21.13;8.20;;;;;;;16.16;100.00;101525.66;7390742;19;20427;-38
2023/04/21 10:30:25;;;;;;;13.00;7.90;;;;;;;16.31;100.00;101522.63;7397171;19;21105;-38
2023/04/21 10:33:04;;;;;;;16.67;8.80;;;;;;;16.15;100.00;101516.09;7398294;19;20971;-40
2023/04/21 10:36:03;;;;;;;15.37;7.93;;;;;;;16.22;100.00;101517.16;7402630;19;20403;-39
2023/04/21 10:38:36;;;;;;;14.33;8.30;;;;;;;16.30;100.00;101518.28;7399848;19;20486;-40
2023/04/21 10:41:27;;;;;;;13.50;7.70;;;;;;;16.42;100.00;101504.72;7395579;19;20419;-40
2023/04/21 10:44:02;;;;;;;14.27;7.23;;;;;;;16.55;100.00;101503.38;7396875;19;20431;-43
2023/04/21 10:46:36;;;;;;;13.30;8.20;;;;;;;16.59;100.00;101510.44;7396291;19;20442;-40
2023/04/21 10:49:08;;;;;;;13.17;7.07;;;;;;;16.59;100.00;101502.63;7400130;19;20443;-41
2023/04/21 10:52:04;;;;;;;14.30;7.63;;;;;;;16.68;100.00;101503.72;7395145;19;20435;-41
2023/04/21 10:54:40;;;;;;;13.87;8.47;;;;;;;16.80;100.00;101498.88;7400001;19;20479;-41
2023/04/21 10:57:12;;;;;;;13.77;8.30;;;;;;;16.72;100.00;101485.63;7394413;19;20447;-41
2023/04/21 10:59:45;;;;;;;11.93;7.33;;;;;;;16.76;100.00;101485.72;7396717;19;20443;-41
2023/04/21 11:02:16;;;;;;;15.77;8.00;;;;;;;16.97;100.00;101490.63;7396494;19;20778;-42
2023/04/21 11:04:46;;;;;;;14.80;8.10;;;;;;;17.01;100.00;101487.25;7396452;19;20957;-41
2023/04/21 11:07:18;;;;;;;15.23;8.40;;;;;;;17.02;100.00;101483.81;7393191;19;20548;-40
2023/04/21 11:09:49;;;;;;;14.93;8.33;;;;;;;17.04;100.00;101483.88;7397396;19;20454;-41
2023/04/21 11:12:19;;;;;;;15.83;7.40;;;;;;;17.09;100.00;101491.00;7394453;19;20446;-40
2023/04/21 11:14:52;;;;;;;14.50;8.03;;;;;;;17.08;100.00;101484.00;7399234;19;20399;-38
2023/04/21 11:17:23;;;;;;;17.03;7.73;;;;;;;17.09;100.00;101470.16;7395322;19;20468;-38
2023/04/21 11:19:54;;;;;;;13.97;7.70;;;;;;;16.94;100.00;101474.91;7396119;19;20434;-42
2023/04/21 11:22:25;;;;;;;17.80;9.63;;;;;;;16.87;100.00;101463.44;7395416;19;20439;-38
2023/04/21 11:24:57;;;;;;;17.13;8.23;;;;;;;17.01;100.00;101455.97;7396382;19;20414;-42
2023/04/21 11:27:28;;;;;;;19.90;13.17;;;;;;;17.04;100.00;101469.13;7395370;19;20435;-40